Time;durP1;ratioP1;P1;durP2;ratioP2;P2;SDS_P1;SDS_P2;PMS_P1;PMS_P2;Temp;Humidity;BMP_temperature;BMP_pressure;BME280_temperature;BME280_humidity;BME280_pressure;Samples;Min_cycle;Max_cycle;Signal;HPM_P1;HPM_P2
2024/04/08 00:01:01;;;;;;;2.92;2.38;;;;;;;11.48;45.52;94439.69;5072229;28;20093;-72
2024/04/08 00:03:27;;;;;;;3.20;2.50;;;;;;;11.44;45.54;94444.03;5072098;28;20558;-72
2024/04/08 00:05:52;;;;;;;5.82;2.38;;;;;;;11.55;45.34;94442.72;5071451;28;20033;-72
2024/04/08 00:08:17;;;;;;;5.50;2.28;;;;;;;11.66;44.99;94440.59;5071681;28;20591;-72
2024/04/08 00:10:43;;;;;;;3.53;2.05;;;;;;;11.72;45.21;94448.19;5071638;28;20040;-72
2024/04/08 00:13:08;;;;;;;3.97;2.20;;;;;;;11.70;44.92;94442.34;5072397;28;20109;-72
2024/04/08 00:15:34;;;;;;;3.35;1.73;;;;;;;11.25;46.25;94441.53;5071726;28;20429;-72
2024/04/08 00:17:59;;;;;;;3.97;2.50;;;;;;;11.44;45.84;94449.38;5071792;28;20067;-72
2024/04/08 00:20:24;;;;;;;3.58;2.20;;;;;;;11.29;45.54;94431.88;5071816;28;20062;-72
2024/04/08 00:22:53;;;;;;;1.90;1.70;;;;;;;11.39;45.32;94446.81;5071492;28;20405;-71
2024/04/08 00:25:19;;;;;;;2.80;2.25;;;;;;;11.48;45.38;94439.69;5071680;28;20020;-72
2024/04/08 00:27:44;;;;;;;4.75;1.73;;;;;;;11.53;45.06;94436.94;5072177;28;20066;-72
2024/04/08 00:30:10;;;;;;;2.65;1.88;;;;;;;11.64;44.94;94443.56;5071596;28;20505;-72
2024/04/08 00:32:35;;;;;;;5.75;1.67;;;;;;;11.67;45.19;94439.53;5071112;28;20089;-72
2024/04/08 00:35:01;;;;;;;3.47;1.83;;;;;;;11.45;45.74;94434.94;5071451;28;20039;-72
2024/04/08 00:37:26;;;;;;;4.03;2.45;;;;;;;11.47;45.71;94443.44;5071239;28;20435;-71
2024/04/08 00:39:51;;;;;;;2.33;1.60;;;;;;;10.72;47.40;94442.16;5071851;28;20025;-71
2024/04/08 00:42:17;;;;;;;3.88;1.90;;;;;;;11.09;46.47;94440.31;5070920;28;20497;-72
2024/04/08 00:44:43;;;;;;;4.03;1.75;;;;;;;11.15;46.56;94447.88;5071529;28;20252;-72
2024/04/08 00:47:10;;;;;;;5.07;2.08;;;;;;;10.16;48.85;94449.66;5071464;28;20135;-72
2024/04/08 00:49:38;;;;;;;3.55;1.92;;;;;;;10.62;47.51;94438.94;5071365;28;20032;-72
2024/04/08 00:52:04;;;;;;;3.47;1.98;;;;;;;10.69;47.58;94440.13;5071048;28;20029;-72
2024/04/08 00:54:29;;;;;;;3.38;1.92;;;;;;;9.66;50.02;94454.78;5071354;28;20552;-72
2024/04/08 00:56:59;;;;;;;5.78;1.98;;;;;;;10.21;48.69;94445.03;5071040;28;20072;-72
2024/04/08 00:59:26;;;;;;;4.78;2.38;;;;;;;10.57;47.73;94439.03;5070810;28;20409;-72
2024/04/08 01:01:52;;;;;;;13.25;2.15;;;;;;;10.82;47.45;94443.03;5071108;28;20036;-72
2024/04/08 01:04:17;;;;;;;4.95;2.38;;;;;;;10.86;46.92;94441.34;5071442;28;20047;-71
2024/04/08 01:06:43;;;;;;;2.30;1.67;;;;;;;10.83;47.15;94434.75;5071134;28;20025;-72
2024/04/08 01:09:09;;;;;;;5.47;2.00;;;;;;;10.85;46.92;94432.59;5070672;28;20099;-72
2024/04/08 01:11:35;;;;;;;5.63;1.52;;;;;;;10.81;47.19;94442.25;5070766;28;20060;-72
2024/04/08 01:14:00;;;;;;;5.90;1.60;;;;;;;10.87;47.10;94440.25;5071072;28;20126;-72
2024/04/08 01:16:26;;;;;;;1.88;1.52;;;;;;;10.78;46.82;94416.25;5072957;28;20489;-71
2024/04/08 01:18:52;;;;;;;3.67;2.05;;;;;;;10.96;46.79;94430.47;5075716;28;20038;-72
2024/04/08 01:21:17;;;;;;;1.98;1.35;;;;;;;10.95;46.88;94432.38;5075068;28;20039;-72
2024/04/08 01:23:43;;;;;;;3.88;1.42;;;;;;;10.91;47.27;94431.38;5075162;28;20498;-72
2024/04/08 01:26:09;;;;;;;2.30;1.98;;;;;;;10.68;47.52;94427.09;5075379;28;20032;-72
2024/04/08 01:28:36;;;;;;;2.83;1.90;;;;;;;10.87;47.08;94429.63;5074793;28;20032;-72
2024/04/08 01:31:02;;;;;;;2.50;1.42;;;;;;;11.02;46.94;94442.59;5075508;28;20024;-72
2024/04/08 01:33:28;;;;;;;2.40;1.58;;;;;;;10.65;47.61;94438.34;5074604;28;20034;-72
2024/04/08 01:35:53;;;;;;;4.13;1.50;;;;;;;10.21;48.65;94428.28;5074376;28;20581;-72
2024/04/08 01:38:20;;;;;;;5.22;1.70;;;;;;;10.56;47.84;94432.16;5074648;28;20042;-72
2024/04/08 01:40:46;;;;;;;2.85;1.83;;;;;;;10.42;47.86;94412.75;5074744;28;20082;-72
2024/04/08 01:43:12;;;;;;;2.67;1.85;;;;;;;10.66;47.63;94439.94;5075261;28;20056;-72
2024/04/08 01:45:38;;;;;;;3.08;1.60;;;;;;;10.77;47.28;94429.84;5074462;28;20056;-72
2024/04/08 01:48:03;;;;;;;7.07;1.67;;;;;;;10.75;47.17;94422.19;5074501;28;20094;-72
2024/04/08 01:50:29;;;;;;;5.75;2.17;;;;;;;10.80;47.07;94427.38;5074609;28;20086;-72
2024/04/08 01:52:54;;;;;;;4.63;1.45;;;;;;;10.65;47.65;94425.84;5074338;28;20404;-72
2024/04/08 01:55:19;;;;;;;5.25;1.90;;;;;;;10.54;47.67;94427.13;5074474;28;20104;-70
2024/04/08 01:57:45;;;;;;;4.18;1.55;;;;;;;10.48;48.11;94428.31;5074682;28;20060;-72
2024/04/08 02:00:10;;;;;;;3.67;1.77;;;;;;;10.45;48.30;94423.59;5073959;28;20404;-72
2024/04/08 02:02:36;;;;;;;1.80;1.52;;;;;;;10.50;47.83;94420.84;5074439;28;20040;-72
2024/04/08 02:05:01;;;;;;;2.25;1.52;;;;;;;10.60;47.61;94417.19;5074151;28;20504;-72
2024/04/08 02:07:26;;;;;;;3.85;1.50;;;;;;;10.61;47.80;94416.09;5074534;28;20032;-71
2024/04/08 02:09:52;;;;;;;5.20;1.70;;;;;;;10.50;48.18;94414.72;5074590;28;20363;-72
2024/04/08 02:12:17;;;;;;;2.17;1.33;;;;;;;10.54;48.06;94421.00;5074117;28;20039;-72
2024/04/08 02:14:42;;;;;;;5.32;2.25;;;;;;;10.36;48.46;94414.75;5073868;28;20525;-72
2024/04/08 02:17:08;;;;;;;4.60;1.70;;;;;;;10.48;47.87;94423.00;5073876;28;20059;-72
2024/04/08 02:19:33;;;;;;;2.60;1.58;;;;;;;10.41;47.89;94416.50;5074004;28;20115;-71
2024/04/08 02:21:59;;;;;;;1.52;1.33;;;;;;;10.52;48.22;94423.19;5073906;28;20032;-72
2024/04/08 02:24:24;;;;;;;3.13;1.73;;;;;;;10.43;48.03;94424.97;5073820;28;20036;-72
2024/04/08 02:26:49;;;;;;;2.13;1.50;;;;;;;10.44;48.26;94421.22;5073969;28;20063;-72
2024/04/08 02:29:15;;;;;;;4.88;1.70;;;;;;;10.19;48.30;94412.63;5073385;28;20094;-72
2024/04/08 02:31:40;;;;;;;4.57;1.52;;;;;;;10.30;48.28;94423.88;5073624;28;20036;-71
2024/04/08 02:34:05;;;;;;;2.92;1.30;;;;;;;10.27;48.58;94432.41;5074302;28;20409;-72
2024/04/08 02:36:31;;;;;;;3.83;1.20;;;;;;;10.35;48.52;94436.28;5073544;28;20049;-72
2024/04/08 02:38:56;;;;;;;3.67;1.42;;;;;;;10.41;47.94;94438.56;5073469;28;20035;-72
2024/04/08 02:41:22;;;;;;;3.30;1.70;;;;;;;10.26;48.66;94447.59;5073524;28;20094;-72
2024/04/08 02:43:47;;;;;;;2.22;1.58;;;;;;;10.21;48.74;94449.56;5073745;28;20040;-72
2024/04/08 02:46:13;;;;;;;1.75;1.48;;;;;;;10.12;49.01;94454.75;5073710;28;20024;-68
2024/04/08 02:48:38;;;;;;;1.60;1.42;;;;;;;10.16;48.67;94458.41;5073810;28;20036;-72
2024/04/08 02:51:06;;;;;;;2.58;2.38;;;;;;;10.21;48.88;94455.66;5073439;28;20044;-72
2024/04/08 02:53:33;;;;;;;4.32;1.80;;;;;;;10.17;48.69;94454.66;5071759;28;20398;-72
2024/04/08 02:56:04;;;;;;;4.28;1.40;;;;;;;10.23;48.66;94458.81;5073441;28;20029;-71
2024/04/08 02:58:30;;;;;;;3.97;1.50;;;;;;;10.31;48.56;94447.50;5073164;28;20075;-71
2024/04/08 03:00:55;;;;;;;2.22;1.45;;;;;;;10.35;48.24;94460.19;5073688;28;20055;-72
2024/04/08 03:03:21;;;;;;;2.92;1.20;;;;;;;10.30;48.47;94456.56;5072952;28;20029;-72
2024/04/08 03:05:46;;;;;;;3.35;1.17;;;;;;;10.10;48.61;94454.28;5073086;28;20408;-72
2024/04/08 03:08:11;;;;;;;2.88;1.30;;;;;;;10.09;48.49;94462.53;5072907;28;20515;-72
2024/04/08 03:10:37;;;;;;;4.97;1.70;;;;;;;9.98;49.04;94461.94;5072507;28;20043;-72
2024/04/08 03:13:02;;;;;;;7.10;1.60;;;;;;;9.96;49.04;94461.44;5073499;28;20052;-71
2024/04/08 03:15:28;;;;;;;2.38;1.80;;;;;;;9.94;48.90;94460.94;5073244;28;20475;-72
2024/04/08 03:17:53;;;;;;;4.25;1.40;;;;;;;9.97;48.85;94459.59;5073099;28;20549;-72
2024/04/08 03:20:20;;;;;;;5.38;1.35;;;;;;;9.95;49.13;94464.38;5072751;28;20033;-72
2024/04/08 03:22:45;;;;;;;5.13;2.03;;;;;;;9.99;48.96;94471.47;5072049;28;20044;-72
2024/04/08 03:25:10;;;;;;;4.55;1.52;;;;;;;10.05;48.69;94472.97;5073052;28;20070;-71
2024/04/08 03:27:36;;;;;;;5.43;1.52;;;;;;;9.95;48.71;94469.69;5072326;28;20040;-71
2024/04/08 03:30:01;;;;;;;4.15;2.08;;;;;;;9.85;49.21;94468.00;5072468;28;20178;-72
2024/04/08 03:32:26;;;;;;;4.03;1.52;;;;;;;9.95;49.27;94473.16;5072747;28;20044;-72
2024/04/08 03:34:52;;;;;;;4.00;1.77;;;;;;;9.98;49.14;94477.88;5072552;28;20067;-72
2024/04/08 03:37:25;;;;;;;6.78;1.83;;;;;;;9.91;48.88;94480.13;5072655;28;20385;-70
2024/04/08 03:39:50;;;;;;;3.67;1.55;;;;;;;9.86;49.44;94482.88;5071722;28;20100;-72
2024/04/08 03:42:15;;;;;;;7.38;1.73;;;;;;;9.79;49.50;94485.09;5072004;28;20116;-72
2024/04/08 03:44:41;;;;;;;1.67;1.48;;;;;;;9.75;49.49;94484.91;5072335;28;20043;-72
2024/04/08 03:47:06;;;;;;;3.28;1.63;;;;;;;9.70;49.84;94477.03;5072003;28;20051;-72
2024/04/08 03:49:32;;;;;;;2.83;2.05;;;;;;;9.75;49.79;94490.22;5072203;28;20550;-71
2024/04/08 03:51:57;;;;;;;8.30;1.85;;;;;;;9.76;49.28;94486.50;5072248;28;20530;-72
2024/04/08 03:54:22;;;;;;;4.15;1.90;;;;;;;9.63;50.01;94481.16;5072117;28;20043;-71
2024/04/08 03:56:48;;;;;;;2.40;2.10;;;;;;;9.63;49.84;94476.63;5072146;28;20456;-72
2024/04/08 03:59:13;;;;;;;4.60;1.83;;;;;;;9.53;50.25;94476.00;5071861;28;20090;-72
2024/04/08 04:01:39;;;;;;;5.25;1.85;;;;;;;9.53;50.01;94471.47;5071896;28;20043;-72
2024/04/08 04:04:04;;;;;;;4.25;1.80;;;;;;;9.57;50.09;94482.28;5072765;28;20052;-72
2024/04/08 04:06:29;;;;;;;3.50;1.52;;;;;;;9.42;50.08;94462.09;5071764;28;20493;-72
2024/04/08 04:08:55;;;;;;;5.53;1.73;;;;;;;9.56;50.53;94486.03;5072059;28;20413;-72
2024/04/08 04:11:20;;;;;;;3.67;1.90;;;;;;;9.55;50.47;94490.53;5071744;28;20062;-72
2024/04/08 04:13:45;;;;;;;4.82;1.70;;;;;;;9.54;50.43;94485.50;5071559;28;20044;-72
2024/04/08 04:16:11;;;;;;;4.65;2.10;;;;;;;9.55;50.71;94484.44;5072352;28;20023;-72
2024/04/08 04:18:37;;;;;;;9.38;1.73;;;;;;;9.56;50.65;94486.81;5071899;28;20038;-72
2024/04/08 04:21:03;;;;;;;3.42;2.03;;;;;;;9.66;50.72;94485.88;5071965;28;20078;-72
2024/04/08 04:23:28;;;;;;;9.40;2.05;;;;;;;9.43;51.43;94498.97;5071903;28;20489;-72
2024/04/08 04:25:58;;;;;;;7.65;2.20;;;;;;;9.86;50.49;94496.16;5071530;28;20412;-72
2024/04/08 04:28:23;;;;;;;3.05;2.22;;;;;;;9.81;50.34;94490.94;5071869;28;20029;-71
2024/04/08 04:30:56;;;;;;;9.70;2.47;;;;;;;10.09;49.84;94499.75;5071939;28;20016;-72
2024/04/08 04:33:23;;;;;;;4.40;2.92;;;;;;;10.15;49.90;94499.38;5071343;28;20029;-72
2024/04/08 04:35:55;;;;;;;6.60;2.05;;;;;;;10.29;49.91;94500.19;5071409;28;20036;-71
2024/04/08 04:38:21;;;;;;;3.13;2.50;;;;;;;10.31;49.48;94497.22;5071386;28;20039;-72
2024/04/08 04:40:47;;;;;;;5.40;3.13;;;;;;;10.37;49.57;94498.72;5071157;28;20036;-72
2024/04/08 04:43:12;;;;;;;4.97;2.60;;;;;;;10.58;49.31;94501.78;5070940;28;20059;-67
2024/04/08 04:45:38;;;;;;;4.40;2.53;;;;;;;10.64;49.09;94506.72;5078686;28;20048;-72
2024/04/08 04:48:04;;;;;;;4.45;2.78;;;;;;;10.67;49.09;94503.47;5079472;28;20409;-72
2024/04/08 04:50:32;;;;;;;3.72;2.70;;;;;;;10.86;48.82;94511.31;5079933;28;20028;-72
2024/04/08 04:52:58;;;;;;;5.10;2.88;;;;;;;11.03;48.45;94514.19;5080723;28;20033;-72
2024/04/08 04:55:23;;;;;;;7.45;2.90;;;;;;;11.13;48.00;94508.63;5081226;28;20047;-72
2024/04/08 04:57:48;;;;;;;5.03;3.05;;;;;;;11.32;47.72;94513.03;5072880;28;20040;-72
2024/04/08 05:00:14;;;;;;;8.80;3.08;;;;;;;11.50;47.21;94512.06;5071208;28;20072;-71
2024/04/08 05:02:39;;;;;;;9.30;2.95;;;;;;;11.58;46.86;94516.72;5071275;28;20063;-72
2024/04/08 05:05:05;;;;;;;19.08;4.47;;;;;;;11.55;47.26;94514.66;5071384;28;20036;-72
2024/04/08 05:07:30;;;;;;;8.43;4.07;;;;;;;11.49;46.93;94519.28;5071197;28;20110;-72
2024/04/08 05:09:57;;;;;;;19.85;5.18;;;;;;;11.66;46.48;94515.22;5070321;28;20016;-71
2024/04/08 05:12:23;;;;;;;16.35;4.70;;;;;;;11.71;46.34;94520.41;5070779;28;20040;-71
2024/04/08 05:14:48;;;;;;;18.67;4.47;;;;;;;11.56;46.60;94526.88;5070985;28;20521;-72
2024/04/08 05:17:13;;;;;;;16.00;3.45;;;;;;;11.34;47.20;94522.31;5071025;28;20040;-72
2024/04/08 05:19:39;;;;;;;13.52;3.60;;;;;;;11.57;46.42;94518.59;5070886;28;20071;-71
2024/04/08 05:22:04;;;;;;;14.48;3.13;;;;;;;12.01;46.77;94522.34;5071143;28;20027;-72
2024/04/08 05:24:30;;;;;;;6.60;3.08;;;;;;;11.81;45.89;94523.63;5070557;28;20047;-72
2024/04/08 05:26:55;;;;;;;5.78;2.20;;;;;;;11.85;45.98;94519.28;5070903;28;20416;-72
2024/04/08 05:29:23;;;;;;;6.82;2.53;;;;;;;11.82;46.14;94519.88;5070712;28;20560;-72
2024/04/08 05:31:50;;;;;;;12.15;3.92;;;;;;;12.06;45.62;94518.78;5070165;28;20047;-72
2024/04/08 05:34:15;;;;;;;10.45;2.92;;;;;;;12.30;44.73;94521.88;5070790;28;20048;-71
2024/04/08 05:36:41;;;;;;;7.50;3.42;;;;;;;12.34;45.14;94520.19;5070572;28;20479;-72
2024/04/08 05:39:06;;;;;;;7.55;3.50;;;;;;;12.55;44.98;94526.56;5070400;28;20033;-72
2024/04/08 05:41:31;;;;;;;16.02;4.85;;;;;;;12.65;45.19;94521.00;5070486;28;20043;-72
2024/04/08 05:43:57;;;;;;;15.55;4.90;;;;;;;12.65;45.18;94525.53;5070262;28;20051;-72
2024/04/08 05:46:24;;;;;;;28.85;5.35;;;;;;;12.94;44.29;94525.78;5070493;28;20508;-71
2024/04/08 05:48:50;;;;;;;17.50;4.57;;;;;;;12.79;44.54;94524.31;5070578;28;20024;-72
2024/04/08 05:51:16;;;;;;;14.65;5.68;;;;;;;12.73;45.23;94524.78;5070181;28;20035;-72
2024/04/08 05:53:41;;;;;;;18.15;5.32;;;;;;;13.14;44.60;94535.09;5069778;28;20048;-72
2024/04/08 05:56:07;;;;;;;20.02;5.40;;;;;;;12.66;45.59;94530.56;5070603;28;20036;-72
2024/04/08 05:58:32;;;;;;;18.05;5.30;;;;;;;13.00;44.77;94537.13;5069762;28;20053;-72
2024/04/08 06:00:58;;;;;;;19.85;5.50;;;;;;;13.09;44.70;94537.91;5070431;28;20025;-72
2024/04/08 06:03:23;;;;;;;20.40;5.00;;;;;;;12.87;45.60;94542.25;5071570;28;20032;-72
2024/04/08 06:05:49;;;;;;;12.60;5.65;;;;;;;12.64;45.91;94534.63;5073563;28;20186;-72
2024/04/08 06:08:15;;;;;;;17.33;3.75;;;;;;;12.93;45.73;94534.09;5073826;28;20379;-72
2024/04/08 06:10:45;;;;;;;12.70;5.15;;;;;;;13.43;44.62;94529.97;5073848;28;20037;-71
2024/04/08 06:13:10;;;;;;;13.23;5.13;;;;;;;13.59;44.56;94517.72;5074440;28;20020;-71
2024/04/08 06:15:36;;;;;;;15.70;4.80;;;;;;;13.62;44.70;94527.81;5073690;28;20459;-71
2024/04/08 06:18:01;;;;;;;13.18;3.50;;;;;;;13.95;43.89;94527.31;5073211;28;20032;-71
2024/04/08 06:20:27;;;;;;;5.95;3.47;;;;;;;14.19;42.94;94522.22;5073334;28;20033;-71
2024/04/08 06:22:52;;;;;;;6.60;1.90;;;;;;;14.19;42.40;94530.25;5073220;28;20375;-71
2024/04/08 06:25:18;;;;;;;8.90;2.47;;;;;;;14.09;42.62;94530.59;5073301;28;20382;-70
2024/04/08 06:27:46;;;;;;;7.28;2.15;;;;;;;14.21;42.91;94533.41;5073359;28;20035;-71
2024/04/08 06:30:11;;;;;;;6.78;1.90;;;;;;;14.02;43.53;94535.66;5073063;28;20032;-71
2024/04/08 06:32:37;;;;;;;5.35;1.58;;;;;;;14.18;43.18;94534.81;5073060;28;20043;-71
2024/04/08 06:35:02;;;;;;;6.63;2.03;;;;;;;14.38;42.24;94530.69;5073287;28;20056;-71
2024/04/08 06:37:28;;;;;;;5.57;1.80;;;;;;;14.47;42.19;94539.47;5073311;28;20103;-71
2024/04/08 06:39:53;;;;;;;6.95;1.77;;;;;;;14.71;42.75;94540.84;5073348;28;20379;-71
2024/04/08 06:42:19;;;;;;;7.85;2.45;;;;;;;14.67;41.67;94526.53;5073337;28;20047;-71
2024/04/08 06:44:50;;;;;;;9.73;2.40;;;;;;;14.79;41.47;94537.34;5073144;28;20054;-71
2024/04/08 06:47:16;;;;;;;5.47;2.42;;;;;;;14.21;42.22;94544.09;5072963;28;20082;-71
2024/04/08 06:49:43;;;;;;;9.57;2.50;;;;;;;14.59;41.93;94539.63;5072791;28;20040;-71
2024/04/08 06:52:09;;;;;;;11.25;3.03;;;;;;;14.81;41.58;94541.28;5073450;28;20020;-71
2024/04/08 06:54:34;;;;;;;9.98;3.13;;;;;;;14.75;41.19;94542.56;5072489;28;20033;-72
2024/04/08 06:56:59;;;;;;;9.93;3.00;;;;;;;14.81;41.42;94545.84;5072902;28;20497;-71
2024/04/08 06:59:25;;;;;;;5.93;3.40;;;;;;;14.87;41.59;94550.69;5072453;28;20079;-70
2024/04/08 07:01:51;;;;;;;13.48;4.10;;;;;;;14.86;41.33;94548.34;5072811;28;20493;-70
2024/04/08 07:04:21;;;;;;;4.20;3.38;;;;;;;14.95;41.27;94549.09;5072441;28;20103;-71
2024/04/08 07:06:46;;;;;;;9.43;3.72;;;;;;;15.00;41.27;94551.59;5072179;28;20074;-71
2024/04/08 07:09:12;;;;;;;8.10;3.00;;;;;;;14.95;42.20;94549.88;5072261;28;20032;-71
2024/04/08 07:11:37;;;;;;;6.28;3.97;;;;;;;15.06;40.68;94544.94;5071817;28;20508;-71
2024/04/08 07:14:03;;;;;;;6.18;3.60;;;;;;;15.12;41.77;94546.31;5072091;28;20040;-71
2024/04/08 07:16:28;;;;;;;7.72;3.45;;;;;;;15.26;40.88;94552.22;5072515;28;20112;-71
2024/04/08 07:18:53;;;;;;;6.05;2.45;;;;;;;15.32;41.74;94540.22;5073464;28;20024;-71
2024/04/08 07:21:19;;;;;;;8.15;2.88;;;;;;;15.69;40.62;94538.59;5072614;28;20062;-71
2024/04/08 07:23:44;;;;;;;7.47;3.42;;;;;;;15.81;40.75;94540.53;5072263;28;20302;-71
2024/04/08 07:26:09;;;;;;;5.05;2.45;;;;;;;15.87;40.02;94542.69;5072238;28;20386;-71
2024/04/08 07:28:35;;;;;;;5.05;2.45;;;;;;;15.73;39.68;94541.41;5072015;28;20044;-71
2024/04/08 07:31:00;;;;;;;7.63;2.85;;;;;;;15.71;39.51;94552.44;5072758;28;20027;-71
2024/04/08 07:33:26;;;;;;;10.55;3.22;;;;;;;15.60;39.54;94513.72;5072284;28;20040;-71
2024/04/08 07:35:51;;;;;;;4.38;2.47;;;;;;;15.36;39.76;94546.50;5071981;28;20032;-71
2024/04/08 07:38:16;;;;;;;7.82;2.92;;;;;;;15.42;39.25;94544.41;5072091;28;20515;-71
2024/04/08 07:40:43;;;;;;;5.78;2.33;;;;;;;15.44;39.72;94545.69;5072035;28;20039;-71
2024/04/08 07:43:08;;;;;;;3.80;2.47;;;;;;;15.29;40.34;94551.59;5071940;28;20074;-71
2024/04/08 07:45:33;;;;;;;5.97;2.28;;;;;;;15.48;39.65;94547.72;5071281;28;20037;-71
2024/04/08 07:47:59;;;;;;;7.82;2.20;;;;;;;15.50;39.94;94540.91;5071564;28;20396;-71
2024/04/08 07:50:24;;;;;;;12.30;2.05;;;;;;;15.46;39.04;94542.69;5071517;28;20106;-71
2024/04/08 07:52:50;;;;;;;8.05;1.65;;;;;;;15.36;39.27;94540.34;5071392;28;20032;-71
2024/04/08 07:55:15;;;;;;;6.30;1.75;;;;;;;15.43;38.90;94554.03;5071381;28;20447;-71
2024/04/08 07:57:41;;;;;;;2.60;1.50;;;;;;;15.49;38.75;94539.38;5071803;28;20053;-71
2024/04/08 08:00:07;;;;;;;4.03;2.10;;;;;;;15.48;39.39;94553.09;5071339;28;20459;-71
2024/04/08 08:02:34;;;;;;;2.90;2.10;;;;;;;15.49;38.49;94551.97;5071759;28;20029;-71
2024/04/08 08:04:59;;;;;;;8.27;5.10;;;;;;;15.60;39.08;94539.72;5071182;28;20528;-71
2024/04/08 08:07:24;;;;;;;9.10;3.45;;;;;;;15.69;38.79;94543.16;5071474;28;20028;-70
2024/04/08 08:09:50;;;;;;;5.38;2.35;;;;;;;15.75;38.12;94537.25;5071741;28;20059;-71
2024/04/08 08:12:17;;;;;;;3.25;2.08;;;;;;;15.67;37.85;94530.06;5071088;28;20037;-71
2024/04/08 08:14:43;;;;;;;5.80;1.45;;;;;;;15.55;38.18;94529.22;5071402;28;20048;-71
2024/04/08 08:17:08;;;;;;;5.38;2.22;;;;;;;15.49;38.21;94530.53;5071402;28;20040;-71
2024/04/08 08:19:34;;;;;;;3.75;1.70;;;;;;;15.43;38.39;94530.69;5071081;28;20055;-71
2024/04/08 08:22:01;;;;;;;4.18;1.70;;;;;;;15.60;38.11;94534.38;5072141;28;20028;-71
2024/04/08 08:24:26;;;;;;;5.88;2.25;;;;;;;15.59;38.19;94522.09;5071026;28;20033;-71
2024/04/08 08:26:52;;;;;;;5.35;2.20;;;;;;;15.62;37.98;94516.06;5069068;28;20035;-71
2024/04/08 08:29:17;;;;;;;2.75;1.35;;;;;;;15.63;37.69;94523.81;5070716;28;20535;-71
2024/04/08 08:31:43;;;;;;;9.30;1.50;;;;;;;15.56;37.60;94522.72;5071622;28;20032;-71
2024/04/08 08:34:08;;;;;;;3.60;1.52;;;;;;;15.70;37.40;94517.91;5071544;28;20400;-71
2024/04/08 08:36:33;;;;;;;9.32;2.30;;;;;;;15.63;38.09;94517.66;5070713;28;20497;-71
2024/04/08 08:38:59;;;;;;;9.73;1.90;;;;;;;15.64;37.47;94517.34;5070752;28;20044;-71
2024/04/08 08:41:30;;;;;;;6.05;1.30;;;;;;;15.65;37.04;94516.19;5070243;28;20040;-71
2024/04/08 08:44:00;;;;;;;5.53;1.70;;;;;;;15.51;37.14;94512.22;5070889;28;20075;-71
2024/04/08 08:46:27;;;;;;;1.92;1.13;;;;;;;15.52;37.51;94513.78;5071161;28;20020;-71
2024/04/08 08:48:59;;;;;;;5.10;1.67;;;;;;;15.39;36.99;94507.56;5070892;28;20025;-71
2024/04/08 08:51:26;;;;;;;1.88;1.00;;;;;;;15.32;36.24;94508.06;5070402;28;20048;-71
2024/04/08 08:53:52;;;;;;;8.60;1.30;;;;;;;15.46;36.81;94507.81;5070115;28;20040;-71
2024/04/08 08:56:17;;;;;;;6.65;1.67;;;;;;;15.52;37.61;94513.78;5070627;28;20403;-71
2024/04/08 08:58:50;;;;;;;3.42;1.20;;;;;;;15.63;35.55;94506.94;5070469;28;20421;-71
2024/04/08 09:01:17;;;;;;;10.68;1.13;;;;;;;15.60;33.89;94496.84;5070949;28;20047;-70
2024/04/08 09:03:44;;;;;;;2.00;1.00;;;;;;;15.61;35.34;94503.78;5071157;28;20012;-71
2024/04/08 09:06:10;;;;;;;10.07;0.93;;;;;;;15.41;34.60;94499.94;5069572;28;20055;-71
2024/04/08 09:08:35;;;;;;;2.95;1.15;;;;;;;15.57;33.60;94498.28;5069365;28;20040;-71
2024/04/08 09:11:06;;;;;;;1.58;1.00;;;;;;;15.52;33.94;94505.75;5069504;28;20044;-71
2024/04/08 09:13:33;;;;;;;4.57;1.10;;;;;;;15.57;34.22;94492.13;5070124;28;20017;-71
2024/04/08 09:15:59;;;;;;;5.07;1.23;;;;;;;15.53;35.16;94492.03;5070194;28;20037;-71
2024/04/08 09:18:25;;;;;;;3.40;1.13;;;;;;;15.60;35.01;94496.84;5069246;28;20040;-71
2024/04/08 09:20:50;;;;;;;8.57;2.03;;;;;;;15.45;35.26;94498.22;5069537;28;20047;-71
2024/04/08 09:23:16;;;;;;;2.20;1.20;;;;;;;15.45;35.47;94501.69;5069078;28;20032;-71
2024/04/08 09:25:41;;;;;;;3.88;1.27;;;;;;;15.68;35.99;94496.78;5069762;28;20463;-71
2024/04/08 09:28:09;;;;;;;5.57;1.50;;;;;;;15.85;34.57;94493.16;5069894;28;20497;-71
2024/04/08 09:30:35;;;;;;;1.88;0.70;;;;;;;16.00;33.09;94495.22;5069312;28;20149;-71
2024/04/08 09:33:00;;;;;;;2.05;0.77;;;;;;;15.82;33.08;94483.09;5069395;28;20115;-71
2024/04/08 09:35:26;;;;;;;1.35;0.63;;;;;;;15.99;32.91;94488.28;5069386;28;20102;-71
2024/04/08 09:37:55;;;;;;;0.90;0.68;;;;;;;16.09;33.39;94474.47;5070324;28;20116;-71
2024/04/08 09:40:24;;;;;;;3.65;1.20;;;;;;;16.06;33.53;94468.97;5072980;28;20024;-72
2024/04/08 09:42:51;;;;;;;2.60;0.60;;;;;;;15.83;32.27;94472.06;5072329;28;20224;-72
2024/04/08 09:45:18;;;;;;;1.10;0.50;;;;;;;15.83;32.46;94468.56;5072231;28;20033;-71
2024/04/08 09:47:45;;;;;;;4.32;0.90;;;;;;;15.93;33.26;94465.50;5072213;28;20567;-72
2024/04/08 09:50:12;;;;;;;0.70;0.70;;;;;;;16.05;33.20;94470.88;5072101;28;20060;-72
2024/04/08 09:52:40;;;;;;;2.78;1.25;;;;;;;16.16;33.66;94466.66;5072314;28;20056;-72
2024/04/08 09:55:09;;;;;;;3.97;0.60;;;;;;;16.06;32.21;94467.09;5072097;28;20021;-72
2024/04/08 09:57:39;;;;;;;0.68;0.60;;;;;;;16.14;32.15;94460.84;5070816;28;20041;-72
2024/04/08 10:00:10;;;;;;;2.13;0.68;;;;;;;15.96;34.32;94450.63;5071504;28;20101;-72
2024/04/08 10:02:39;;;;;;;3.60;0.50;;;;;;;16.11;32.76;94449.97;5072158;28;20037;-72
2024/04/08 10:05:05;;;;;;;6.75;0.95;;;;;;;16.41;32.47;94446.06;5079576;28;20036;-72
2024/04/08 10:07:34;;;;;;;1.73;0.60;;;;;;;16.51;31.88;94432.19;5079224;28;20073;-73
2024/04/08 10:10:02;;;;;;;2.42;0.60;;;;;;;16.54;32.66;94444.94;5079429;28;20017;-72
2024/04/08 10:12:31;;;;;;;1.45;0.60;;;;;;;16.59;31.86;94442.03;5076997;28;20028;-71
2024/04/08 10:15:07;;;;;;;3.05;0.80;;;;;;;16.68;32.65;94428.47;5072308;28;20036;-72
2024/04/08 10:17:34;;;;;;;1.35;0.70;;;;;;;16.69;32.04;94424.69;5072666;28;20025;-71
2024/04/08 10:20:00;;;;;;;6.65;0.73;;;;;;;16.71;31.68;94433.19;5072958;28;20275;-72
2024/04/08 10:22:28;;;;;;;0.90;0.50;;;;;;;16.66;31.69;94430.72;5072327;28;20386;-72
2024/04/08 10:24:54;;;;;;;0.75;0.60;;;;;;;16.68;32.42;94428.47;5072177;28;20020;-72
2024/04/08 10:27:25;;;;;;;1.95;0.70;;;;;;;16.82;35.08;94431.59;5072728;28;20044;-72
2024/04/08 10:29:58;;;;;;;4.13;0.60;;;;;;;16.86;31.95;94426.34;5072833;28;20070;-72
2024/04/08 10:32:24;;;;;;;2.45;1.00;;;;;;;16.80;32.05;94415.06;5072217;28;20063;-72
2024/04/08 10:34:50;;;;;;;0.60;0.60;;;;;;;16.62;32.11;94424.47;5072402;28;20516;-72
2024/04/08 10:37:16;;;;;;;0.75;0.50;;;;;;;16.69;31.91;94403.97;5072164;28;20024;-71
2024/04/08 10:39:41;;;;;;;9.90;1.00;;;;;;;16.88;32.32;94400.72;5072756;28;20023;-72
2024/04/08 10:42:17;;;;;;;5.07;1.13;;;;;;;17.07;32.00;94382.09;5072523;28;20418;-72
2024/04/08 10:44:43;;;;;;;3.65;0.68;;;;;;;17.21;31.15;94389.03;5071546;28;20032;-72
2024/04/08 10:47:09;;;;;;;1.05;0.63;;;;;;;17.06;31.83;94393.94;5072037;28;20032;-72
2024/04/08 10:49:40;;;;;;;3.13;0.65;;;;;;;17.00;31.94;94389.94;5071081;28;20487;-72
2024/04/08 10:52:05;;;;;;;9.90;0.80;;;;;;;17.13;33.19;94386.13;5072239;28;20033;-72
2024/04/08 10:54:31;;;;;;;2.55;0.60;;;;;;;17.25;31.56;94381.84;5071577;28;20032;-72
2024/04/08 10:56:56;;;;;;;1.13;0.70;;;;;;;17.36;31.46;94372.16;5071716;28;20036;-72
2024/04/08 10:59:22;;;;;;;2.40;0.88;;;;;;;17.26;31.90;94356.53;5071934;28;20133;-72
2024/04/08 11:01:48;;;;;;;10.88;1.42;;;;;;;17.22;32.09;94369.09;5071805;28;20051;-72
2024/04/08 11:04:13;;;;;;;1.48;0.57;;;;;;;17.40;32.98;94363.09;5071821;28;20016;-68
2024/04/08 11:06:39;;;;;;;1.42;0.75;;;;;;;17.48;32.53;94356.78;5072453;28;20025;-72
2024/04/08 11:09:06;;;;;;;9.77;1.20;;;;;;;17.61;32.19;94363.66;5071568;28;20048;-72
2024/04/08 11:11:32;;;;;;;4.40;0.70;;;;;;;17.58;32.02;94356.28;5071779;28;20028;-72
2024/04/08 11:13:57;;;;;;;4.72;0.73;;;;;;;17.55;31.62;94340.81;5070984;28;20104;-72
2024/04/08 11:16:23;;;;;;;3.50;1.15;;;;;;;17.62;31.68;94348.31;5070552;28;20615;-72
2024/04/08 11:18:49;;;;;;;1.65;0.93;;;;;;;17.63;31.64;94354.47;5072035;28;20017;-72
2024/04/08 11:21:15;;;;;;;3.00;0.60;;;;;;;17.49;31.25;94354.88;5071308;28;20036;-72
2024/04/08 11:23:41;;;;;;;2.63;0.70;;;;;;;17.48;31.45;94347.94;5071327;28;20522;-72
2024/04/08 11:26:08;;;;;;;2.15;0.70;;;;;;;17.54;31.63;94346.56;5070888;28;20062;-72
2024/04/08 11:28:33;;;;;;;3.35;0.70;;;;;;;17.54;31.63;94341.19;5071374;28;20048;-71